Observations for STORNOWAY, United Kingdom (EGPO)

EGPO 260450Z 19018KT 9999 FEW016 SCT024 14/11 Q1013 
EGPO 260420Z AUTO 20021KT 9999 FEW022/// 14/10 Q1013
EGPO 260350Z AUTO 20021KT 9999 SCT022/// 14/10 Q1013
EGPO 260320Z AUTO 19021KT 9999 SCT019/// BKN023/// 14/10 Q1013  
EGPO 260250Z AUTO 19020KT 9999 BKN016/// OVC021/// 14/11 Q1013  
EGPO 260220Z AUTO 20020G30KT 9999 OVC014/// 14/11 Q1013 
EGPO 260150Z AUTO 20018KT 9999 OVC015/// 14/11 Q1014
EGPO 260120Z AUTO 20017KT 9999 OVC013/// 14/11 Q1014
EGPO 260050Z AUTO 19016KT 9999 OVC011/// 13/11 Q1014
EGPO 260020Z AUTO 20014KT 9999 OVC009/// 13/12 Q1014
EGPO 252350Z AUTO 20014KT 9999 OVC009/// 13/12 Q1015
EGPO 252320Z AUTO 20013KT 9999 BKN009/// OVC014/// 14/12 Q1015  
EGPO 252250Z AUTO 21014KT 9999 OVC008/// 14/12 Q1015
EGPO 252220Z AUTO 20010KT 9999 OVC009/// 14/12 Q1015
EGPO 252150Z AUTO 20006KT 170V240 9999 BKN010/// 13/13 Q1015
EGPO 252120Z AUTO 21005KT 9999 SCT010/// 13/12 Q1015
EGPO 252050Z AUTO 22004KT 9999 BKN009/// 14/13 Q1015
EGPO 252020Z AUTO 00000KT 9999 BKN010/// 15/13 Q1015
EGPO 251950Z AUTO VRB03KT 9999 BKN010/// 15/13 Q1015
EGPO 251920Z AUTO 00000KT 9999 BKN009/// 15/14 Q1015
EGPO 251850Z AUTO VRB03KT 9999 NCD 15/14 Q1015  
EGPO 251820Z AUTO 05005KT 010V080 9999 NCD 16/14 Q1015  
EGPO 251750Z AUTO VRB03KT 9999 NCD 15/13 Q1015  
EGPO 251720Z 13004KT 9999 FEW002 15/13 Q1015
EGPO 251650Z 15005KT 9999 FEW002 15/14 Q1015
EGPO 251620Z 15007KT 9999 4000S VCFG FEW002 15/14 Q1015 
EGPO 251550Z 17008KT 9999 3000S VCFG FEW002 16/14 Q1015 
EGPO 251520Z 17005KT 9999 FEW002 17/15 Q1015
EGPO 251450Z 14005KT 9999 FEW002 18/15 Q1015
EGPO 251420Z VRB03KT 9999 FEW003 17/14 Q1016
EGPO 251350Z VRB03KT 9999 FEW003 15/14 Q1016
EGPO 251320Z 02004KT 330V040 9999 FEW003 15/13 Q1016
EGPO 251250Z 04005KT 9999 FEW003 15/13 Q1016
EGPO 251220Z 03006KT 9999 FEW006 SCT009 15/13 Q1016 
EGPO 251150Z 05006KT 9999 FEW005 SCT009 15/13 Q1017 
EGPO 251120Z 05006KT 9999 SCT005 BKN007 15/13 Q1017 
EGPO 251050Z 04006KT 9999 BKN004 14/13 Q1017
EGPO 251020Z AUTO 04006KT 9999 OVC004/// 14/13 Q1017
EGPO 250950Z AUTO 04006KT 9999 OVC003/// 14/13 Q1017
EGPO 250920Z AUTO 04004KT 9999 OVC003/// 14/13 Q1018
EGPO 250850Z AUTO 02004KT 9999 OVC002/// 14/13 Q1018
EGPO 250820Z AUTO 02003KT 9999 OVC002/// 14/13 Q1018
EGPO 250750Z AUTO 01002KT 9999 OVC002/// 14/13 Q1018
EGPO 250720Z AUTO 02003KT 9000 OVC002/// 13/13 Q1018
EGPO 250650Z AUTO 01003KT 9999 OVC003/// 13/13 Q1018
EGPO 250620Z AUTO 05002KT 9999 OVC003/// 13/13 Q1018
EGPO 250550Z AUTO VRB03KT 9999 OVC004/// 13/13 Q1017
EGPO 250520Z AUTO VRB02KT 9999 BKN005/// OVC012/// 13/13 Q1017  
EGPO 250450Z AUTO 05002KT 9999 OVC005/// 13/13 Q1017
EGPO 250420Z AUTO 04001KT 9999 OVC006/// 13/13 Q1018